createdAt,value
2023-04-12T00:00:10.791Z,8.31
2023-04-12T00:02:40.528Z,8.26
2023-04-12T00:05:11.594Z,8.35
2023-04-12T00:07:40.137Z,8.22
2023-04-12T00:10:10.326Z,8.31
2023-04-12T00:12:40.873Z,8.28
2023-04-12T00:15:10.303Z,8.33
2023-04-12T00:17:38.633Z,8.29
2023-04-12T00:20:12.154Z,8.27
2023-04-12T00:22:41.581Z,8.27
2023-04-12T00:25:10.234Z,8.29
2023-04-12T00:27:40.659Z,8.27
2023-04-12T00:30:09.712Z,8.23
2023-04-12T00:32:38.032Z,8.17
2023-04-12T00:35:07.004Z,8.26
2023-04-12T00:37:36.319Z,8.21
2023-04-12T00:40:07.006Z,8.22
2023-04-12T00:42:36.051Z,8.22
2023-04-12T00:45:06.903Z,8.23
2023-04-12T00:47:36.863Z,8.22
2023-04-12T00:50:06.023Z,8.20
2023-04-12T00:52:35.573Z,8.26
2023-04-12T00:55:05.113Z,8.20
2023-04-12T00:57:36.624Z,8.27
2023-04-12T01:00:08.360Z,8.22
2023-04-12T01:02:39.439Z,8.19
2023-04-12T01:05:14.703Z,8.21
2023-04-12T01:07:54.311Z,8.23
2023-04-12T01:10:36.189Z,8.23
2023-04-12T01:13:13.662Z,8.22
2023-04-12T01:15:54.601Z,8.29
2023-04-12T01:18:28.086Z,8.27
2023-04-12T01:21:04.881Z,8.23
2023-04-12T01:23:48.491Z,8.30
2023-04-12T01:26:34.466Z,8.32
2023-04-12T01:29:11.944Z,8.32
2023-04-12T01:31:42.252Z,8.34
2023-04-12T01:34:12.902Z,8.34
2023-04-12T01:36:43.785Z,8.30
2023-04-12T01:39:12.350Z,8.35
2023-04-12T01:41:45.604Z,8.34
2023-04-12T01:44:19.050Z,8.34
2023-04-12T01:46:48.209Z,8.41
2023-04-12T01:49:18.780Z,8.37
2023-04-12T01:51:54.431Z,8.37
2023-04-12T01:54:27.410Z,8.43
2023-04-12T01:56:59.178Z,8.45
2023-04-12T01:59:33.626Z,8.42
2023-04-12T02:02:03.562Z,8.44
2023-04-12T02:04:35.284Z,8.48
2023-04-12T02:07:04.040Z,8.46
2023-04-12T02:09:37.052Z,8.48
2023-04-12T02:12:07.086Z,8.51
2023-04-12T02:14:36.976Z,8.51
2023-04-12T02:17:05.904Z,8.48
2023-04-12T02:19:34.661Z,8.50
2023-04-12T02:22:04.529Z,8.53
2023-04-12T02:24:32.948Z,8.51
2023-04-12T02:27:01.445Z,8.50
2023-04-12T02:29:31.314Z,8.53
2023-04-12T02:32:01.027Z,8.58
2023-04-12T02:34:34.305Z,8.63
2023-04-12T02:37:13.735Z,8.56
2023-04-12T02:39:42.032Z,8.57
2023-04-12T02:42:11.077Z,8.56
2023-04-12T02:44:41.998Z,8.57
2023-04-12T02:47:15.972Z,8.60
2023-04-12T02:49:48.284Z,8.61
2023-04-12T02:52:19.098Z,8.62
2023-04-12T02:55:01.584Z,8.58
2023-04-12T02:57:30.317Z,8.60
2023-04-12T02:59:58.733Z,8.63
2023-04-12T03:02:35.676Z,8.63
2023-04-12T03:05:07.475Z,8.68
2023-04-12T03:07:41.445Z,8.70
2023-04-12T03:10:12.806Z,8.63
2023-04-12T03:12:49.782Z,8.63
2023-04-12T03:15:20.238Z,8.63
2023-04-12T03:17:51.294Z,8.62
2023-04-12T03:20:24.544Z,8.63
2023-04-12T03:23:04.152Z,8.64
2023-04-12T03:25:34.681Z,8.65
2023-04-12T03:28:20.144Z,8.64
2023-04-12T03:30:51.655Z,8.73
2023-04-12T03:33:24.346Z,8.67
2023-04-12T03:35:56.765Z,8.70
2023-04-12T03:38:25.812Z,8.77
2023-04-12T03:40:55.720Z,8.66
2023-04-12T03:43:35.853Z,8.75
2023-04-12T03:46:07.928Z,8.77
2023-04-12T03:48:37.862Z,8.82
2023-04-12T03:51:08.718Z,8.78
2023-04-12T03:53:40.526Z,8.79
2023-04-12T03:56:12.628Z,8.80
2023-04-12T03:58:41.005Z,8.80
2023-04-12T04:01:10.439Z,8.76
2023-04-12T04:03:41.165Z,8.76
2023-04-12T04:06:20.327Z,8.79
2023-04-12T04:08:48.811Z,8.82
2023-04-12T04:11:17.423Z,8.82
2023-04-12T04:13:50.978Z,8.82
2023-04-12T04:16:21.524Z,8.83
2023-04-12T04:18:53.390Z,8.90
2023-04-12T04:21:23.873Z,8.93
2023-04-12T04:23:58.761Z,8.92
2023-04-12T04:26:33.344Z,8.89
2023-04-12T04:29:22.238Z,8.96
2023-04-12T04:31:50.880Z,8.91
2023-04-12T04:34:22.323Z,8.91
2023-04-12T04:36:57.624Z,8.91
2023-04-12T04:39:31.851Z,8.95
2023-04-12T04:42:00.967Z,8.97
2023-04-12T04:44:51.168Z,8.89
2023-04-12T04:47:19.460Z,8.89
2023-04-12T04:49:49.825Z,8.82
2023-04-12T04:52:26.635Z,8.85
2023-04-12T04:55:00.102Z,8.86
2023-04-12T04:57:34.800Z,8.70
2023-04-12T05:00:11.012Z,8.70
2023-04-12T05:02:42.960Z,8.74
2023-04-12T05:05:16.975Z,8.70
2023-04-12T05:07:47.421Z,8.73
2023-04-12T05:10:16.684Z,8.66
2023-04-12T05:12:45.556Z,8.76
2023-04-12T05:15:16.097Z,8.66
2023-04-12T05:17:45.187Z,8.77
2023-04-12T05:20:13.566Z,8.75
2023-04-12T05:22:43.158Z,8.79
2023-04-12T05:25:11.704Z,8.78
2023-04-12T05:27:52.016Z,8.70
2023-04-12T05:30:21.646Z,8.79
2023-04-12T05:32:51.038Z,8.76
2023-04-12T05:35:20.918Z,8.82
2023-04-12T05:37:51.963Z,8.80
2023-04-12T05:40:20.341Z,8.78
2023-04-12T05:42:52.299Z,8.82
2023-04-12T05:45:20.949Z,8.66
2023-04-12T05:47:49.585Z,8.66
2023-04-12T05:50:18.462Z,8.72
2023-04-12T05:52:48.596Z,8.68
2023-04-12T05:55:18.665Z,8.68
2023-04-12T05:57:47.676Z,8.77
2023-04-12T06:00:19.302Z,8.76
2023-04-12T06:02:50.702Z,8.80
2023-04-12T06:05:19.959Z,8.80
2023-04-12T06:07:48.973Z,8.85
2023-04-12T06:10:19.386Z,8.81
2023-04-12T06:12:53.368Z,8.81
2023-04-12T06:15:22.358Z,8.95
2023-04-12T06:17:55.776Z,8.88
2023-04-12T06:20:24.053Z,8.87
2023-04-12T06:22:52.711Z,9.01
2023-04-12T06:25:23.324Z,9.14
2023-04-12T06:27:52.505Z,8.98
2023-04-12T06:30:22.264Z,8.93
2023-04-12T06:32:53.834Z,9.02
2023-04-12T06:35:23.665Z,9.01
2023-04-12T06:37:51.964Z,9.07
2023-04-12T06:40:20.502Z,9.10
2023-04-12T06:42:50.091Z,9.10
2023-04-12T06:45:23.458Z,9.17
2023-04-12T06:47:51.761Z,9.18
2023-04-12T06:50:19.964Z,9.21
2023-04-12T06:52:48.893Z,9.23
2023-04-12T06:55:17.446Z,9.36
2023-04-12T06:57:46.226Z,9.29
2023-04-12T07:00:16.689Z,9.17
2023-04-12T07:02:45.110Z,9.07
2023-04-12T07:05:13.478Z,9.11
2023-04-12T07:07:41.709Z,9.36
2023-04-12T07:10:10.707Z,9.79
2023-04-12T07:12:39.002Z,10.00
2023-04-12T07:15:07.936Z,10.19
2023-04-12T07:17:37.670Z,10.24
2023-04-12T07:20:07.053Z,10.35
2023-04-12T07:22:35.306Z,10.48
2023-04-12T07:25:05.188Z,10.85
2023-04-12T07:27:33.420Z,11.20
2023-04-12T07:30:01.702Z,11.23
2023-04-12T07:32:30.243Z,10.92
2023-04-12T07:34:59.866Z,10.86
2023-04-12T07:37:28.107Z,10.60
2023-04-12T07:39:56.382Z,10.81
2023-04-12T07:42:25.177Z,10.75
2023-04-12T07:44:53.444Z,10.58
2023-04-12T07:47:21.720Z,10.27
2023-04-12T07:49:50.108Z,10.31
2023-04-12T07:52:20.013Z,10.28
2023-04-12T07:54:48.361Z,10.21
2023-04-12T07:57:16.681Z,10.01
2023-04-12T07:59:44.941Z,10.24
2023-04-12T08:02:13.342Z,10.31
2023-04-12T08:04:44.516Z,10.48
2023-04-12T08:07:12.816Z,10.42
2023-04-12T08:09:42.484Z,10.53
2023-04-12T08:12:11.577Z,10.29
2023-04-12T08:14:40.873Z,10.13
2023-04-12T08:17:09.473Z,9.83
2023-04-12T08:19:37.952Z,9.77
2023-04-12T08:22:06.230Z,9.59
2023-04-12T08:24:34.470Z,9.53
2023-04-12T08:27:04.126Z,9.44
2023-04-12T08:29:32.463Z,9.57
2023-04-12T08:32:01.550Z,9.52
2023-04-12T08:34:29.792Z,9.40
2023-04-12T08:37:00.322Z,9.37
2023-04-12T08:39:28.658Z,9.32
2023-04-12T08:41:58.499Z,9.30
2023-04-12T08:44:38.036Z,9.46
2023-04-12T08:47:07.492Z,9.53
2023-04-12T08:49:36.276Z,9.69
2023-04-12T08:52:06.710Z,9.75
2023-04-12T08:54:35.365Z,9.95
2023-04-12T08:57:06.470Z,10.40
2023-04-12T08:59:39.527Z,10.73
2023-04-12T09:02:07.867Z,11.26
2023-04-12T09:04:48.592Z,11.56
2023-04-12T09:07:17.382Z,12.17
2023-04-12T09:09:46.420Z,12.20
2023-04-12T09:12:15.851Z,12.06
2023-04-12T09:14:45.986Z,11.85
2023-04-12T09:17:25.027Z,11.98
2023-04-12T09:19:55.087Z,11.72
2023-04-12T09:22:34.974Z,11.74
2023-04-12T09:25:03.622Z,11.77
2023-04-12T09:27:46.279Z,11.70
2023-04-12T09:30:17.759Z,11.70
2023-04-12T09:32:49.292Z,11.51
2023-04-12T09:35:18.107Z,11.46
2023-04-12T09:37:46.384Z,11.46
2023-04-12T09:40:15.178Z,11.54
2023-04-12T09:42:53.466Z,11.55
2023-04-12T09:45:25.761Z,11.64
2023-04-12T09:47:55.091Z,11.78
2023-04-12T09:50:24.680Z,12.12
2023-04-12T09:52:54.559Z,12.17
2023-04-12T09:55:24.226Z,12.20
2023-04-12T09:57:54.224Z,11.69
2023-04-12T10:00:27.041Z,11.27
2023-04-12T10:02:57.832Z,11.11
2023-04-12T10:05:27.937Z,11.01
2023-04-12T10:07:59.193Z,11.20
2023-04-12T10:10:31.789Z,10.92
2023-04-12T10:13:02.194Z,10.77
2023-04-12T10:15:35.162Z,10.78
2023-04-12T10:18:08.202Z,11.07
2023-04-12T10:20:37.559Z,11.56
2023-04-12T10:23:07.806Z,11.94
2023-04-12T10:25:36.300Z,11.78
2023-04-12T10:28:15.662Z,11.24
2023-04-12T10:30:45.758Z,11.54
2023-04-12T10:33:20.725Z,11.89
2023-04-12T10:35:57.615Z,12.12
2023-04-12T10:38:27.347Z,12.28
2023-04-12T10:41:16.303Z,12.12
2023-04-12T10:43:45.864Z,12.50
2023-04-12T10:46:54.479Z,13.07
2023-04-12T10:49:24.015Z,12.93
2023-04-12T10:52:14.950Z,12.88
2023-04-12T10:54:43.402Z,12.97
2023-04-12T10:57:47.203Z,13.09
2023-04-12T11:00:16.933Z,12.96
2023-04-12T11:03:12.512Z,12.91
2023-04-12T11:06:12.678Z,12.77
2023-04-12T11:09:07.401Z,13.21
2023-04-12T11:11:37.812Z,13.31
2023-04-12T11:14:06.513Z,12.97
2023-04-12T11:16:34.886Z,12.51
2023-04-12T11:19:04.577Z,11.69
2023-04-12T11:21:32.899Z,10.86
2023-04-12T11:24:01.920Z,9.70
2023-04-12T11:26:32.114Z,9.26
2023-04-12T11:29:07.866Z,9.25
2023-04-12T11:31:39.427Z,9.07
2023-04-12T11:34:09.173Z,9.42
2023-04-12T11:36:37.700Z,9.82
2023-04-12T11:39:06.100Z,10.57
2023-04-12T11:41:34.339Z,11.29
2023-04-12T11:44:02.685Z,11.03
2023-04-12T11:46:35.487Z,11.07
2023-04-12T11:49:03.896Z,11.41
2023-04-12T11:51:35.075Z,11.19
2023-04-12T11:54:04.445Z,11.38
2023-04-12T11:56:32.968Z,11.14
2023-04-12T11:59:01.434Z,10.63
2023-04-12T12:01:31.909Z,11.12
2023-04-12T12:04:00.981Z,12.41
2023-04-12T12:06:30.525Z,12.05
2023-04-12T12:09:00.451Z,12.62
2023-04-12T12:11:29.232Z,12.87
2023-04-12T12:13:58.163Z,13.45
2023-04-12T12:16:28.069Z,13.47
2023-04-12T12:18:57.298Z,13.22
2023-04-12T12:21:27.287Z,13.37
2023-04-12T12:23:57.951Z,14.09
2023-04-12T12:26:29.199Z,14.05
2023-04-12T12:29:00.368Z,14.49
2023-04-12T12:31:29.349Z,14.23
2023-04-12T12:33:58.752Z,14.43
2023-04-12T12:36:33.718Z,14.54
2023-04-12T12:39:08.055Z,14.95
2023-04-12T12:41:38.080Z,14.11
2023-04-12T12:44:07.907Z,13.21
2023-04-12T12:46:51.690Z,12.31
2023-04-12T12:49:22.394Z,11.66
2023-04-12T12:51:51.909Z,10.67
2023-04-12T12:54:38.852Z,9.89
2023-04-12T12:57:10.536Z,11.20
2023-04-12T12:59:38.945Z,11.85
2023-04-12T13:02:07.581Z,10.75
2023-04-12T13:04:36.414Z,10.21
2023-04-12T13:07:04.767Z,10.11
2023-04-12T13:09:33.520Z,9.93
2023-04-12T13:12:02.429Z,10.07
2023-04-12T13:14:32.061Z,10.78
2023-04-12T13:17:00.343Z,11.03
2023-04-12T13:19:28.670Z,11.61
2023-04-12T13:21:57.309Z,11.81
2023-04-12T13:24:25.787Z,12.57
2023-04-12T13:26:54.465Z,12.19
2023-04-12T13:29:22.697Z,12.29
2023-04-12T13:31:52.466Z,11.75
2023-04-12T13:34:20.726Z,11.58
2023-04-12T13:36:49.072Z,11.88
2023-04-12T13:39:17.282Z,12.65
2023-04-12T13:41:47.077Z,13.75
2023-04-12T13:44:15.392Z,13.08
2023-04-12T13:46:43.627Z,12.56
2023-04-12T13:49:13.247Z,12.40
2023-04-12T13:51:41.527Z,12.51
2023-04-12T13:54:09.747Z,12.80
2023-04-12T13:56:37.982Z,12.70
2023-04-12T13:59:06.231Z,12.47
2023-04-12T14:01:34.481Z,12.34
2023-04-12T14:04:04.003Z,11.88
2023-04-12T14:06:34.414Z,11.82
2023-04-12T14:09:02.641Z,12.17
2023-04-12T14:11:30.868Z,12.12
2023-04-12T14:13:59.104Z,13.02
2023-04-12T14:16:27.351Z,14.09
2023-04-12T14:18:55.828Z,14.54
2023-04-12T14:21:29.007Z,14.69
2023-04-12T14:23:58.836Z,14.67
2023-04-12T14:26:27.410Z,14.73
2023-04-12T14:28:55.742Z,14.48
2023-04-12T14:31:24.344Z,14.56
2023-04-12T14:33:53.487Z,14.41
2023-04-12T14:36:21.777Z,13.54
2023-04-12T14:38:50.908Z,12.84
2023-04-12T14:41:20.669Z,13.12
2023-04-12T14:43:49.851Z,14.42
2023-04-12T14:46:18.738Z,13.59
2023-04-12T14:48:47.084Z,13.73
2023-04-12T14:51:15.485Z,14.68
2023-04-12T14:53:55.354Z,14.79
2023-04-12T14:56:30.182Z,15.13
2023-04-12T14:58:59.464Z,15.14
2023-04-12T15:01:28.725Z,15.68
2023-04-12T15:03:57.238Z,15.43
2023-04-12T15:06:27.228Z,15.14
2023-04-12T15:08:55.559Z,14.28
2023-04-12T15:11:27.247Z,14.33
2023-04-12T15:13:56.334Z,13.68
2023-04-12T15:16:24.838Z,13.89
2023-04-12T15:18:53.067Z,15.12
2023-04-12T15:21:21.404Z,15.42
2023-04-12T15:23:50.470Z,13.56
2023-04-12T15:26:18.840Z,14.70
2023-04-12T15:28:48.520Z,13.16
2023-04-12T15:31:16.845Z,12.90
2023-04-12T15:33:46.652Z,12.72
2023-04-12T15:36:16.712Z,12.62
2023-04-12T15:38:44.951Z,12.26
2023-04-12T15:41:13.233Z,12.78
2023-04-12T15:43:42.129Z,13.15
2023-04-12T15:46:15.018Z,13.04
2023-04-12T15:48:43.340Z,13.12
2023-04-12T15:51:11.593Z,13.03
2023-04-12T15:53:42.313Z,13.55
2023-04-12T15:56:13.676Z,14.59
2023-04-12T15:58:43.192Z,14.57
2023-04-12T16:01:12.980Z,13.83
2023-04-12T16:03:42.866Z,13.04
2023-04-12T16:06:12.320Z,12.96
2023-04-12T16:08:40.621Z,13.19
2023-04-12T16:11:12.151Z,13.07
2023-04-12T16:13:41.877Z,12.72
2023-04-12T16:16:12.823Z,12.41
2023-04-12T16:18:43.143Z,12.28
2023-04-12T16:21:16.312Z,13.19
2023-04-12T16:23:45.273Z,13.61
2023-04-12T16:26:14.169Z,13.52
2023-04-12T16:28:42.920Z,13.33
2023-04-12T16:31:11.434Z,13.06
2023-04-12T16:33:39.733Z,13.12
2023-04-12T16:36:09.519Z,13.55
2023-04-12T16:38:37.844Z,13.63
2023-04-12T16:41:06.481Z,14.49
2023-04-12T16:43:34.699Z,14.35
2023-04-12T16:46:05.908Z,14.99
2023-04-12T16:48:35.528Z,14.94
2023-04-12T16:51:04.837Z,15.14
2023-04-12T16:53:34.507Z,16.41
2023-04-12T16:56:02.985Z,15.83
2023-04-12T16:58:31.685Z,15.34
2023-04-12T17:00:59.949Z,13.58
2023-04-12T17:03:29.020Z,12.72
2023-04-12T17:05:57.833Z,12.29
2023-04-12T17:08:26.167Z,11.77
2023-04-12T17:10:55.924Z,11.56
2023-04-12T17:13:24.277Z,11.29
2023-04-12T17:15:52.799Z,11.15
2023-04-12T17:18:21.507Z,10.81
2023-04-12T17:20:49.864Z,10.90
2023-04-12T17:23:18.119Z,10.95
2023-04-12T17:25:46.657Z,10.85
2023-04-12T17:28:16.370Z,10.65
2023-04-12T17:30:44.952Z,10.59
2023-04-12T17:33:13.216Z,10.56
2023-04-12T17:35:41.610Z,10.54
2023-04-12T17:38:09.922Z,10.31
2023-04-12T17:40:38.468Z,10.31
2023-04-12T17:43:06.666Z,10.37
2023-04-12T17:45:36.341Z,10.26
2023-04-12T17:48:05.285Z,10.12
2023-04-12T17:50:33.676Z,10.09
2023-04-12T17:53:01.995Z,9.98
2023-04-12T17:55:30.605Z,10.03
2023-04-12T17:57:58.865Z,10.00
2023-04-12T18:00:27.356Z,9.94
2023-04-12T18:02:57.953Z,9.92
2023-04-12T18:05:26.344Z,9.88
2023-04-12T18:07:57.036Z,9.89
2023-04-12T18:10:27.394Z,9.88
2023-04-12T18:12:55.693Z,9.79
2023-04-12T18:15:23.939Z,9.71
2023-04-12T18:17:52.225Z,9.70
2023-04-12T18:20:22.094Z,9.68
2023-04-12T18:22:50.402Z,9.56
2023-04-12T18:25:18.776Z,9.51
2023-04-12T18:27:48.458Z,9.49
2023-04-12T18:30:17.653Z,9.44
2023-04-12T18:32:46.553Z,9.25
2023-04-12T18:35:15.333Z,9.32
2023-04-12T18:37:45.304Z,9.27
2023-04-12T18:40:16.042Z,9.10
2023-04-12T18:42:45.403Z,9.14
2023-04-12T18:45:14.417Z,9.07
2023-04-12T18:47:42.670Z,9.04
2023-04-12T18:50:11.515Z,8.93
2023-04-12T18:52:39.932Z,8.95
2023-04-12T18:55:10.061Z,8.91
2023-04-12T18:57:38.502Z,8.78
2023-04-12T19:00:13.551Z,8.66
2023-04-12T19:02:42.118Z,8.68
2023-04-12T19:05:11.122Z,8.62
2023-04-12T19:07:39.383Z,8.71
2023-04-12T19:10:10.210Z,8.65
2023-04-12T19:12:38.572Z,8.60
2023-04-12T19:15:08.922Z,8.66
2023-04-12T19:17:39.031Z,8.62
2023-04-12T19:20:09.006Z,8.61
2023-04-12T19:22:37.285Z,8.58
2023-04-12T19:25:06.246Z,8.46
2023-04-12T19:27:35.902Z,8.43
2023-04-12T19:30:04.545Z,8.42
2023-04-12T19:32:32.899Z,8.38
2023-04-12T19:35:01.176Z,8.37
2023-04-12T19:37:33.936Z,8.31
2023-04-12T19:40:02.493Z,8.37
2023-04-12T19:42:30.719Z,8.44
2023-04-12T19:45:01.598Z,8.48
2023-04-12T19:47:29.920Z,8.55
2023-04-12T19:49:58.849Z,8.57
2023-04-12T19:52:28.401Z,8.59
2023-04-12T19:54:57.212Z,8.60
2023-04-12T19:57:25.603Z,8.61
2023-04-12T19:59:53.856Z,8.65
2023-04-12T20:02:24.654Z,8.68
2023-04-12T20:04:53.421Z,8.66
2023-04-12T20:07:21.711Z,8.76
2023-04-12T20:09:49.937Z,8.75
2023-04-12T20:12:19.276Z,8.82
2023-04-12T20:14:48.337Z,8.88
2023-04-12T20:17:16.587Z,8.98
2023-04-12T20:19:46.880Z,8.95
2023-04-12T20:22:15.388Z,8.95
2023-04-12T20:24:43.672Z,9.00
2023-04-12T20:27:16.708Z,9.04
2023-04-12T20:29:46.657Z,9.10
2023-04-12T20:32:15.336Z,9.11
2023-04-12T20:34:46.699Z,9.14
2023-04-12T20:37:17.446Z,9.17
2023-04-12T20:39:45.732Z,9.18
2023-04-12T20:42:16.430Z,9.04
2023-04-12T20:44:44.645Z,8.83
2023-04-12T20:47:13.183Z,8.50
2023-04-12T20:49:42.367Z,8.16
2023-04-12T20:52:11.090Z,7.81
2023-04-12T20:54:41.577Z,7.79
2023-04-12T20:57:10.564Z,7.64
2023-04-12T20:59:38.815Z,7.55
2023-04-12T21:02:07.160Z,7.50
2023-04-12T21:04:36.472Z,7.41
2023-04-12T21:07:05.523Z,7.43
2023-04-12T21:09:34.057Z,7.43
2023-04-12T21:12:06.149Z,7.47
2023-04-12T21:14:35.569Z,7.42
2023-04-12T21:17:04.982Z,7.41
2023-04-12T21:19:33.283Z,7.43
2023-04-12T21:22:01.952Z,7.35
2023-04-12T21:24:31.000Z,7.32
2023-04-12T21:26:59.938Z,7.30
2023-04-12T21:29:31.930Z,7.30
2023-04-12T21:32:02.158Z,7.16
2023-04-12T21:34:32.561Z,7.13
2023-04-12T21:37:04.229Z,7.10
2023-04-12T21:39:33.005Z,7.03
2023-04-12T21:42:01.649Z,7.12
2023-04-12T21:44:31.959Z,7.14
2023-04-12T21:47:00.198Z,7.19
2023-04-12T21:49:30.109Z,7.24
2023-04-12T21:51:59.205Z,7.33
2023-04-12T21:54:29.039Z,7.32
2023-04-12T21:56:58.298Z,7.37
2023-04-12T21:59:26.667Z,7.41
2023-04-12T22:01:56.280Z,7.49
2023-04-12T22:04:24.557Z,7.53
2023-04-12T22:06:52.982Z,7.54
2023-04-12T22:09:21.235Z,7.55
2023-04-12T22:11:50.190Z,7.57
2023-04-12T22:14:18.440Z,7.59
2023-04-12T22:16:46.836Z,7.57
2023-04-12T22:19:17.184Z,7.49
2023-04-12T22:21:48.504Z,7.50
2023-04-12T22:24:17.530Z,7.38
2023-04-12T22:26:45.780Z,7.23
2023-04-12T22:29:17.433Z,7.09
2023-04-12T22:31:47.046Z,6.86
2023-04-12T22:34:17.026Z,6.84
2023-04-12T22:36:47.299Z,6.80
2023-04-12T22:39:16.441Z,6.69
2023-04-12T22:41:49.710Z,6.68
2023-04-12T22:44:18.435Z,6.69
2023-04-12T22:46:48.212Z,6.73
2023-04-12T22:49:19.977Z,6.66
2023-04-12T22:51:48.329Z,6.71
2023-04-12T22:54:17.511Z,6.70
2023-04-12T22:56:46.264Z,6.67
2023-04-12T22:59:15.319Z,6.74
2023-04-12T23:01:44.704Z,6.73
2023-04-12T23:04:13.246Z,6.71
2023-04-12T23:06:44.593Z,6.74
2023-04-12T23:09:13.943Z,6.82
2023-04-12T23:11:42.874Z,6.82
2023-04-12T23:14:11.215Z,6.79
2023-04-12T23:16:44.169Z,6.82
2023-04-12T23:19:14.473Z,6.86
2023-04-12T23:21:44.854Z,6.90
2023-04-12T23:24:15.560Z,6.96
2023-04-12T23:26:45.224Z,6.94
2023-04-12T23:29:13.776Z,6.97
2023-04-12T23:31:42.334Z,6.97
2023-04-12T23:34:10.646Z,6.99
2023-04-12T23:36:39.085Z,6.98
2023-04-12T23:39:09.665Z,6.93
2023-04-12T23:41:40.740Z,6.97
2023-04-12T23:44:09.270Z,6.97
2023-04-12T23:46:37.560Z,6.85
2023-04-12T23:49:05.845Z,6.88
2023-04-12T23:51:34.133Z,6.86
2023-04-12T23:54:02.354Z,6.85
2023-04-12T23:56:32.190Z,6.89
2023-04-12T23:59:00.535Z,6.86
